Latest Weather Observations for Minlaton Airport

IDS60801

Issued at 2:01 pm CDT Sunday 7 February 2016 (issued every 30 minutes, with the page automatically refreshed every 10 minutes)

About weather observations | Map of weather stations | Latest weather observations for SA | Other Formats
Station Details ID: 022031 Name: MINLATON AERO Lat: -34.75 Lon: 137.53 Height: 32.0 m
Data from the previous 72 hours. | See also: Recent months at Minlaton Airport
Date/Time
CDT
Temp
°C
App
Temp
°C
Dew
Point
Rel
Hum
%
Delta-T
°C
Wind Press
QNH
hPa
Press
MSL
hPa
Rain
since 9 am
mm
Dir
 
Spd
km/h
Gust
km/h
Spd
kts
Gust
kts
07/02:00pm 27.8 23.8 11.8 37 9.2 S 24 32 13 17 1018.0 1017.9 0.0
07/01:30pm 27.5 23.2 11.9 38 9.0 S 26 35 14 19 1018.1 1018.0 0.0
07/01:00pm 27.1 23.1 13.1 42 8.2 S 26 37 14 20 1018.2 1018.1 0.0
07/12:30pm 26.8 23.5 13.9 45 7.7 S 24 33 13 18 1018.3 1018.2 0.0
07/12:00pm 26.6 23.3 14.0 46 7.5 S 24 32 13 17 1018.3 1018.2 0.0
07/11:30am 25.3 22.3 14.7 51 6.3 S 24 32 13 17 1018.4 1018.3 0.0
07/11:00am 24.5 22.1 15.4 57 5.5 S 22 32 12 17 1018.3 1018.2 0.0
07/10:30am 23.7 21.0 15.5 60 4.9 SSE 24 32 13 17 1018.4 1018.3 0.0
07/10:00am 22.6 20.3 15.7 65 4.1 SSE 22 35 12 19 1018.5 1018.4 0.0
07/09:30am 21.7 18.9 16.4 72 3.2 SSE 26 32 14 17 1018.4 1018.3 0.0
07/09:00am 20.4 17.2 16.4 78 2.4 S 28 33 15 18 1018.2 1018.1 0.0
07/08:30am 18.9 16.8 16.3 85 1.6 S 22 30 12 16 1018.0 1017.9 0.0
07/08:00am 17.6 17.2 16.3 92 0.8 S 13 15 7 8 1017.7 1017.6 0.0
07/07:30am 16.1 14.9 15.1 94 0.6 S 15 17 8 9 1017.3 1017.2 0.0
07/07:00am 14.9 13.0 14.1 95 0.5 SSE 17 19 9 10 1017.1 1017.0 0.0
07/06:30am 15.0 13.0 14.0 94 0.6 S 17 19 9 10 1017.1 1017.0 0.0
07/06:00am 15.5 13.7 14.5 94 0.6 S 17 19 9 10 1016.9 1016.8 0.0
07/05:30am 15.8 14.1 14.8 94 0.6 S 17 20 9 11 1016.6 1016.5 0.0
07/05:00am 15.8 13.7 14.8 94 0.6 S 19 22 10 12 1016.7 1016.6 0.0
07/04:30am 15.6 13.8 14.5 93 0.6 SSE 17 19 9 10 1016.0 1015.9 0.0
07/04:00am 16.1 14.5 15.0 93 0.6 SSE 17 20 9 11 1015.7 1015.6 0.0
07/03:30am 16.4 13.6 15.3 93 0.6 SE 24 30 13 16 1015.3 1015.2 0.0
07/03:00am 16.3 13.8 15.2 93 0.6 SE 22 26 12 14 1015.4 1015.3 0.0
07/02:30am 16.4 14.5 15.3 93 0.6 SE 19 22 10 12 1015.3 1015.2 0.0
07/02:00am 16.3 14.2 15.2 93 0.6 SSE 20 26 11 14 1015.6 1015.5 0.0
07/01:30am 16.6 14.5 15.3 92 0.8 SSE 20 24 11 13 1015.9 1015.8 0.0
07/01:00am 16.9 14.5 15.4 91 0.9 SSE 22 26 12 14 1016.1 1016.0 0.0
07/12:30am 17.0 13.5 15.5 91 0.9 SSE 28 35 15 19 1016.1 1016.0 0.0
07/12:00am 17.3 13.9 15.8 91 0.9 SSE 28 35 15 19 1016.3 1016.2 0.0
 
Date/Time
CDT
Temp
°C
App
Temp
°C
Dew
Point
Rel
Hum
%
Delta-T
°C
Wind Press
QNH
hPa
Press
MSL
hPa
Rain
since 9 am
mm
Dir
 
Spd
km/h
Gust
km/h
Spd
kts
Gust
kts
06/11:30pm 17.4 14.0 15.7 90 1.0 SSE 28 35 15 19 1016.1 1016.0 0.0
06/11:00pm 17.6 14.2 15.9 90 1.0 SSE 28 37 15 20 1016.2 1016.1 0.0
06/10:30pm 17.9 14.7 16.2 90 1.0 SSE 28 35 15 19 1016.0 1015.9 0.0
06/10:00pm 18.1 14.8 16.1 88 1.2 SSE 28 33 15 18 1015.9 1015.8 0.0
06/09:30pm 18.3 15.3 15.9 86 1.4 SSE 26 35 14 19 1015.5 1015.4 0.0
06/09:00pm 18.7 16.1 15.9 84 1.7 SSE 24 32 13 17 1015.1 1015.0 0.0
06/08:30pm 19.8 16.5 16.1 79 2.2 SSE 28 35 15 19 1015.1 1015.0 0.0
06/08:00pm 21.3 17.0 16.0 72 3.2 SSE 33 41 18 22 1014.7 1014.6 0.0
06/07:30pm 23.3 19.5 16.6 66 4.1 S 32 41 17 22 1014.4 1014.3 0.0
06/07:00pm 25.0 21.1 16.4 59 5.3 S 32 39 17 21 1014.1 1014.0 0.0
06/06:30pm 26.4 22.2 16.1 53 6.3 S 33 43 18 23 1013.8 1013.7 0.0
06/06:00pm 28.1 24.1 15.1 45 7.9 S 30 37 16 20 1013.5 1013.4 0.0
06/05:30pm 28.7 24.3 14.1 40 8.8 S 30 37 16 20 1013.4 1013.3 0.0
06/05:00pm 29.5 24.7 14.1 39 9.3 S 32 39 17 21 1013.5 1013.4 0.0
06/04:30pm 30.5 26.6 13.3 35 10.3 S 26 37 14 20 1013.4 1013.3 0.0
06/04:00pm 30.1 26.7 12.5 34 10.4 S 22 33 12 18 1013.5 1013.4 0.0
06/03:30pm 30.5 27.3 14.2 37 9.9 SSW 24 33 13 18 1013.8 1013.7 0.0
06/03:00pm 30.5 26.9 14.2 37 9.9 SSW 26 35 14 19 1014.1 1014.0 0.0
06/02:30pm 30.3 27.4 14.0 37 9.8 S 22 35 12 19 1014.2 1014.1 0.0
06/02:00pm 29.9 26.2 14.0 37 9.6 S 26 33 14 18 1014.5 1014.4 0.0
06/01:30pm 30.2 27.5 15.5 41 9.1 SSW 24 39 13 21 1014.6 1014.5 0.0
06/01:00pm 30.0 27.6 15.3 41 9.0 S 22 28 12 15 1014.6 1014.5 0.0
06/12:30pm 30.2 27.8 15.5 41 9.1 S 22 32 12 17 1014.8 1014.7 0.0
06/12:00pm 29.8 28.8 14.7 39 9.2 SSW 13 20 7 11 1014.9 1014.8 0.0
06/11:30am 28.4 28.6 15.7 46 7.8 S 9 13 5 7 1015.2 1015.1 0.0
06/11:00am 27.5 27.6 15.5 48 7.3 SSE 9 15 5 8 1015.6 1015.5 0.0
06/10:30am 26.0 26.0 16.3 55 6.0 SE 11 17 6 9 1015.7 1015.6 0.0
06/10:00am 24.6 23.4 17.6 65 4.4 SE 20 24 11 13 1015.4 1015.3 0.0
06/09:30am 22.3 20.8 17.7 75 2.9 SSE 22 26 12 14 1015.5 1015.4 0.0
06/09:00am 20.5 19.4 17.7 84 1.7 SSE 20 26 11 14 1015.6 1015.5 0.0
06/08:30am 19.2 17.5 17.3 89 1.2 SSE 22 28 12 15 1015.3 1015.2 0.0
06/08:00am 18.1 16.4 17.1 94 0.6 SSE 22 28 12 15 1015.0 1014.9 0.0
06/07:30am 17.1 16.0 16.3 95 0.5 SSE 17 22 9 12 1014.8 1014.7 0.0
06/07:00am 16.3 14.5 15.5 95 0.5 SSE 19 22 10 12 1014.5 1014.4 0.0
06/06:30am 16.1 14.2 15.3 95 0.5 S 19 22 10 12 1014.2 1014.1 0.0
06/06:00am 16.0 14.4 15.0 94 0.6 SSE 17 22 9 12 1014.1 1014.0 0.0
06/05:30am 16.2 14.1 15.2 94 0.6 SSE 20 24 11 13 1013.9 1013.8 0.0
06/05:00am 16.3 14.2 15.3 94 0.6 SSE 20 24 11 13 1013.9 1013.8 0.0
06/04:30am 16.3 14.2 15.2 93 0.6 SSE 20 24 11 13 1014.0 1013.9 0.0
06/04:00am 16.3 14.2 15.2 93 0.6 SSE 20 24 11 13 1014.2 1014.1 0.0
06/03:30am 16.4 14.3 15.1 92 0.8 SSE 20 26 11 14 1014.4 1014.3 0.0
06/03:00am 16.3 14.1 15.0 92 0.8 SSE 20 26 11 14 1014.7 1014.6 0.0
06/02:30am 16.5 13.9 15.0 91 0.9 SSE 22 28 12 15 1014.9 1014.8 0.0
06/02:00am 16.4 13.1 14.9 91 0.9 SSE 26 32 14 17 1015.2 1015.1 0.0
06/01:30am 16.4 13.4 14.8 90 0.9 SSE 24 33 13 18 1015.5 1015.4 0.0
06/01:00am 16.5 12.7 14.7 89 1.0 SSE 28 35 15 19 1015.7 1015.6 0.0
06/12:30am 16.4 13.3 14.6 89 1.0 SSE 24 30 13 16 1016.0 1015.9 0.0
06/12:00am 16.5 13.4 14.5 88 1.1 SSE 24 30 13 16 1016.1 1016.0 0.0
 
Date/Time
CDT
Temp
°C
App
Temp
°C
Dew
Point
Rel
Hum
%
Delta-T
°C
Wind Press
QNH
hPa
Press
MSL
hPa
Rain
since 9 am
mm
Dir
 
Spd
km/h
Gust
km/h
Spd
kts
Gust
kts
05/11:30pm 16.5 12.9 14.3 87 1.3 SSE 26 33 14 18 1016.3 1016.2 0.0
05/11:00pm 16.5 12.4 13.8 84 1.5 SSE 28 35 15 19 1016.5 1016.4 0.0
05/10:30pm 16.7 12.3 14.0 84 1.5 SSE 30 37 16 20 1016.5 1016.4 0.0
05/10:00pm 16.9 11.8 13.8 82 1.8 SSE 33 41 18 22 1016.4 1016.3 0.0
05/09:30pm 17.1 12.6 13.8 81 1.9 SSE 30 37 16 20 1016.3 1016.2 0.0
05/09:00pm 17.4 12.2 13.5 78 2.2 SSE 33 43 18 23 1016.1 1016.0 0.0
05/08:30pm 18.1 12.7 13.8 76 2.4 SSE 35 46 19 25 1016.0 1015.9 0.0
05/08:00pm 19.1 12.7 13.3 69 3.3 SSE 39 46 21 25 1015.8 1015.7 0.0
05/07:30pm 20.4 14.7 12.9 62 4.3 SSE 35 43 19 23 1015.6 1015.5 0.0
05/07:00pm 21.5 14.7 11.8 54 5.4 SSE 39 48 21 26 1015.1 1015.0 0.0
05/06:30pm 22.2 15.2 11.3 50 6.1 SSE 39 46 21 25 1015.2 1015.1 0.0
05/06:00pm 23.0 16.5 11.7 49 6.4 SSE 37 48 20 26 1015.0 1014.9 0.0
05/05:30pm 24.0 17.7 11.0 44 7.3 SSE 35 44 19 24 1015.4 1015.3 0.0
05/05:00pm 23.6 17.5 10.3 43 7.3 SSE 33 46 18 25 1015.7 1015.6 0.0
05/04:30pm 24.1 18.0 10.4 42 7.6 S 33 44 18 24 1015.9 1015.8 0.0
05/04:00pm 25.1 19.4 9.8 38 8.4 SSE 30 41 16 22 1016.1 1016.0 0.0
05/03:30pm 24.9 19.9 10.8 41 7.9 SSE 28 41 15 22 1016.4 1016.3 0.0
05/03:00pm 24.4 19.1 9.9 40 8.0 SE 28 37 15 20 1016.7 1016.6 0.0
05/02:30pm 24.3 19.6 10.6 42 7.6 SSE 26 35 14 19 1017.2 1017.1 0.0
05/02:00pm 23.9 19.4 10.2 42 7.5 SSE 24 33 13 18 1017.4 1017.3 0.0
05/01:30pm 24.1 19.2 11.4 45 7.1 SE 28 39 15 21 1017.5 1017.4 0.0
05/01:00pm 23.5 18.8 10.6 44 7.1 SE 26 35 14 19 1018.0 1017.9 0.0
05/12:30pm 23.0 18.2 11.7 49 6.3 SE 28 39 15 21 1018.3 1018.2 0.0
05/12:00pm 22.9 18.1 11.6 49 6.3 SE 28 37 15 20 1018.6 1018.5 0.0
05/11:30am 22.0 17.2 11.7 52 5.8 SE 28 35 15 19 1018.9 1018.8 0.0
05/11:00am 21.2 15.8 11.0 52 5.6 SE 30 39 16 21 1019.2 1019.1 0.0
05/10:30am 21.1 15.8 11.2 53 5.5 SE 30 43 16 23 1019.2 1019.1 0.0
05/10:00am 20.1 14.2 11.3 57 4.8 SE 33 44 18 24 1019.1 1019.0 0.0
05/09:30am 19.6 13.5 11.6 60 4.4 SE 35 46 19 25 1019.4 1019.3 0.0
05/09:00am 18.8 12.7 11.6 63 3.9 SE 35 44 19 24 1019.3 1019.2 0.0
05/08:30am 17.9 12.2 11.0 64 3.7 SE 32 41 17 22 1019.3 1019.2 0.0
05/08:00am 17.0 11.7 11.3 69 3.1 SE 30 41 16 22 1019.2 1019.1 0.0
05/07:30am 16.2 12.0 11.2 72 2.7 SE 24 32 13 17 1018.9 1018.8 0.0
05/07:00am 15.8 13.1 11.8 77 2.2 SE 17 20 9 11 1018.6 1018.5 0.0
05/06:30am 16.2 12.3 12.0 76 2.3 SE 24 30 13 16 1018.4 1018.3 0.0
05/06:00am 16.3 11.6 12.1 76 2.3 SSE 28 35 15 19 1018.2 1018.1 0.0
05/05:30am 16.2 11.6 12.2 77 2.2 SE 28 35 15 19 1018.1 1018.0 0.0
05/05:00am 15.8 12.0 12.4 80 1.9 SSE 24 32 13 17 1018.0 1017.9 0.0
05/04:30am 15.2 11.4 12.3 83 1.6 SSE 24 30 13 16 1018.0 1017.9 0.0
05/04:00am 14.8 10.4 11.8 82 1.6 SSE 26 33 14 18 1018.0 1017.9 0.0
05/03:30am 14.3 10.7 12.0 86 1.2 SSE 22 28 12 15 1018.0 1017.9 0.0
05/03:00am 14.7 10.3 11.8 83 1.6 SSE 26 35 14 19 1018.1 1018.0 0.0
05/02:30am 14.9 10.2 12.0 83 1.6 SSE 28 35 15 19 1018.3 1018.2 0.0
05/02:00am 15.2 11.3 12.2 82 1.6 SSE 24 32 13 17 1018.5 1018.4 0.0
05/01:30am 15.5 10.5 12.3 81 1.7 SSE 30 39 16 21 1018.8 1018.7 0.0
05/01:00am 15.6 10.3 12.4 81 1.8 SSE 32 43 17 23 1019.0 1018.9 0.0
05/12:30am 15.7 11.5 12.3 80 1.9 SSE 26 35 14 19 1019.0 1018.9 0.0
05/12:00am 15.7 11.2 12.5 81 1.8 SSE 28 33 15 18 1019.1 1019.0 0.0
 
Date/Time
CDT
Temp
°C
App
Temp
°C
Dew
Point
Rel
Hum
%
Delta-T
°C
Wind Press
QNH
hPa
Press
MSL
hPa
Rain
since 9 am
mm
Dir
 
Spd
km/h
Gust
km/h
Spd
kts
Gust
kts
04/11:30pm 15.8 11.2 12.4 80 1.9 SSE 28 35 15 19 1019.5 1019.4 0.0
04/11:00pm 15.7 11.1 12.3 80 1.9 SSE 28 37 15 20 1019.7 1019.6 0.0
04/10:30pm 15.7 10.7 12.1 79 2.0 SSE 30 39 16 21 1019.8 1019.7 0.0
04/10:00pm 15.8 10.7 12.0 78 2.1 SSE 30 39 16 21 1019.7 1019.6 0.0
04/09:30pm 15.8 10.7 11.8 77 2.2 SSE 30 35 16 19 1019.6 1019.5 0.0
04/09:00pm 16.6 10.5 11.7 73 2.7 SSE 35 44 19 24 1019.2 1019.1 0.0
04/08:30pm 17.0 10.0 11.3 69 3.1 SSE 39 48 21 26 1019.1 1019.0 0.0
04/08:00pm 17.9 10.1 11.0 64 3.7 SSE 43 54 23 29 1019.0 1018.9 0.0
04/07:30pm 18.8 10.9 11.4 62 4.0 SSE 44 56 24 30 1018.8 1018.7 0.0
04/07:00pm 19.6 11.6 11.1 58 4.6 SSE 44 57 24 31 1018.6 1018.5 0.0
04/06:30pm 20.2 12.1 10.9 55 5.1 SSE 44 57 24 31 1018.6 1018.5 0.0
04/06:00pm 21.1 13.2 11.4 54 5.4 SSE 44 52 24 28 1018.4 1018.3 0.0
04/05:38pm 21.5 13.4 10.9 51 5.8 SE 44 65 24 35 1018.4 1018.3 0.0
04/05:30pm 21.8 13.9 10.9 50 6.0 SSE 43 56 23 30 1018.4 1018.3 0.0
04/05:00pm 22.0 13.9 10.8 49 6.2 SSE 44 56 24 30 1018.5 1018.4 0.0
04/04:30pm 22.8 14.9 10.9 47 6.6 SSE 43 57 23 31 1018.7 1018.6 0.0
04/04:00pm 22.4 14.7 10.2 46 6.7 SSE 41 54 22 29 1019.0 1018.9 0.0
04/03:30pm 22.5 15.2 10.3 46 6.7 SSE 39 52 21 28 1019.1 1019.0 0.0
04/03:00pm 23.7 16.8 10.4 43 7.3 SSE 37 50 20 27 1019.5 1019.4 0.0
04/02:49pm 22.7 14.9 9.8 44 7.0 SSE 41 59 22 32 1019.6 1019.5 0.0
04/02:30pm 22.5 14.6 9.3 43 7.1 SSE 41 52 22 28 1019.7 1019.6 0.0

Other Formats:

Comma delimited format used in spreadsheet applications
http://www.bom.gov.au/fwo/IDS60801/IDS60801.95659.axf

JavaScript Object Notation format (JSON) in row-major order
http://www.bom.gov.au/fwo/IDS60801/IDS60801.95659.json